createdAt,value
2016-07-25T00:00:55.780Z,0
2016-07-25T00:01:55.161Z,0
2016-07-25T00:02:55.212Z,0
2016-07-25T00:03:55.236Z,0
2016-07-25T00:04:55.996Z,0
2016-07-25T00:05:56.055Z,0
2016-07-25T00:06:55.391Z,0
2016-07-25T00:07:56.165Z,0
2016-07-25T00:08:56.210Z,0
2016-07-25T00:09:56.233Z,0
2016-07-25T00:10:55.593Z,0
2016-07-25T00:11:56.375Z,0
2016-07-25T00:12:56.422Z,0
2016-07-25T00:13:55.755Z,0
2016-07-25T00:14:56.484Z,0
2016-07-25T00:15:56.525Z,0
2016-07-25T00:16:56.654Z,0
2016-07-25T00:17:56.638Z,0
2016-07-25T00:18:56.708Z,0
2016-07-25T00:19:56.975Z,0
2016-07-25T00:20:56.802Z,0
2016-07-25T00:21:56.857Z,0
2016-07-25T00:22:56.904Z,0
2016-07-25T00:23:56.962Z,0
2016-07-25T00:24:55.609Z,0
2016-07-25T00:25:57.086Z,0
2016-07-25T00:26:57.087Z,0
2016-07-25T00:27:56.441Z,0
2016-07-25T00:28:56.525Z,0
2016-07-25T00:29:57.307Z,0
2016-07-25T00:30:56.613Z,0
2016-07-25T00:31:57.379Z,0
2016-07-25T00:32:57.418Z,0
2016-07-25T00:33:57.447Z,0
2016-07-25T00:34:56.817Z,0
2016-07-25T00:35:57.605Z,0
2016-07-25T00:36:57.608Z,0
2016-07-25T00:37:57.649Z,0
2016-07-25T00:38:56.997Z,0
2016-07-25T00:39:56.369Z,0
2016-07-25T00:40:57.116Z,0
2016-07-25T00:41:57.892Z,0
2016-07-25T00:42:57.904Z,0
2016-07-25T00:43:57.974Z,0
2016-07-25T00:44:56.612Z,0
2016-07-25T00:45:58.064Z,0
2016-07-25T00:46:58.141Z,0
2016-07-25T00:47:58.189Z,0
2016-07-25T00:48:56.997Z,0
2016-07-25T00:49:58.245Z,0
2016-07-25T00:50:58.322Z,0
2016-07-25T00:51:57.647Z,0
2016-07-25T00:52:58.395Z,0
2016-07-25T00:53:58.492Z,0
2016-07-25T00:54:58.538Z,0
2016-07-25T00:55:58.582Z,0
2016-07-25T00:56:58.623Z,0
2016-07-25T00:57:58.650Z,0
2016-07-25T00:58:58.714Z,0
2016-07-25T00:59:58.742Z,0
2016-07-25T01:00:58.843Z,0
2016-07-25T01:01:58.861Z,0
2016-07-25T01:02:58.936Z,0
2016-07-25T01:03:59.008Z,0
2016-07-25T01:04:59.012Z,0
2016-07-25T01:05:58.379Z,0
2016-07-25T01:06:59.132Z,0
2016-07-25T01:07:58.454Z,0
2016-07-25T01:08:59.216Z,0
2016-07-25T01:09:58.550Z,0
2016-07-25T01:10:59.311Z,0
2016-07-25T01:11:59.372Z,0
2016-07-25T01:12:58.719Z,0
2016-07-25T01:13:58.737Z,0
2016-07-25T01:14:58.816Z,0
2016-07-25T01:15:59.544Z,0
2016-07-25T01:16:59.637Z,0
2016-07-25T01:17:59.658Z,0
2016-07-25T01:18:59.714Z,0
2016-07-25T01:19:59.766Z,0
2016-07-25T01:20:59.828Z,0
2016-07-25T01:21:59.179Z,0
2016-07-25T01:22:59.917Z,0
2016-07-25T01:23:59.256Z,0
2016-07-25T01:25:00.019Z,0
2016-07-25T01:26:00.059Z,0
2016-07-25T01:26:59.430Z,0
2016-07-25T01:27:59.457Z,0
2016-07-25T01:28:59.508Z,0
2016-07-25T01:29:59.562Z,0
2016-07-25T01:31:00.338Z,0
2016-07-25T01:31:59.665Z,0
2016-07-25T01:33:00.425Z,0
2016-07-25T01:34:00.470Z,0
2016-07-25T01:35:00.522Z,0
2016-07-25T01:35:59.858Z,0
2016-07-25T01:37:00.648Z,0
2016-07-25T01:38:00.706Z,0
2016-07-25T01:39:00.045Z,0
2016-07-25T01:40:00.761Z,0
2016-07-25T01:41:00.829Z,0
2016-07-25T01:42:00.188Z,0
2016-07-25T01:43:00.239Z,0
2016-07-25T01:44:00.989Z,0
2016-07-25T01:45:00.310Z,0
2016-07-25T01:46:00.368Z,0
2016-07-25T01:47:01.151Z,0
2016-07-25T01:48:01.205Z,0
2016-07-25T01:49:01.280Z,0
2016-07-25T01:50:01.264Z,0
2016-07-25T01:51:01.334Z,0
2016-07-25T01:52:01.380Z,0
2016-07-25T01:53:00.738Z,0
2016-07-25T01:54:01.481Z,0
2016-07-25T01:55:00.855Z,0
2016-07-25T01:56:01.587Z,0
2016-07-25T01:57:00.936Z,0
2016-07-25T01:58:01.680Z,0
2016-07-25T01:59:01.055Z,0
2016-07-25T02:00:01.113Z,0
2016-07-25T02:01:01.861Z,0
2016-07-25T02:02:00.514Z,0
2016-07-25T02:03:01.954Z,0
2016-07-25T02:04:01.962Z,0
2016-07-25T02:05:02.056Z,0
2016-07-25T02:06:02.105Z,0
2016-07-25T02:07:02.141Z,0
2016-07-25T02:08:02.161Z,0
2016-07-25T02:09:02.236Z,0
2016-07-25T02:10:00.886Z,0
2016-07-25T02:11:02.328Z,0
2016-07-25T02:12:01.675Z,0
2016-07-25T02:13:01.751Z,0
2016-07-25T02:14:02.482Z,0
2016-07-25T02:15:02.537Z,0
2016-07-25T02:16:01.887Z,0
2016-07-25T02:17:02.656Z,0
2016-07-25T02:18:02.681Z,0
2016-07-25T02:19:02.725Z,0
2016-07-25T02:20:02.830Z,0
2016-07-25T02:21:01.444Z,0
2016-07-25T02:22:02.182Z,0
2016-07-25T02:23:02.934Z,0
2016-07-25T02:24:02.495Z,0
2016-07-25T02:25:03.036Z,0
2016-07-25T02:26:03.078Z,0
2016-07-25T02:27:03.134Z,0
2016-07-25T02:28:03.216Z,0
2016-07-25T02:29:03.250Z,0
2016-07-25T02:30:03.316Z,0
2016-07-25T02:31:02.621Z,0
2016-07-25T02:32:03.370Z,0
2016-07-25T02:33:03.439Z,0
2016-07-25T02:34:03.509Z,0
2016-07-25T02:35:03.567Z,0
2016-07-25T02:36:03.615Z,0
2016-07-25T02:37:03.651Z,0
2016-07-25T02:38:03.682Z,0
2016-07-25T02:39:03.744Z,0
2016-07-25T02:40:03.843Z,0
2016-07-25T02:41:03.848Z,0
2016-07-25T02:42:03.900Z,0
2016-07-25T02:43:03.961Z,0
2016-07-25T02:44:03.304Z,0
2016-07-25T02:45:04.080Z,0
2016-07-25T02:46:04.091Z,0
2016-07-25T02:47:03.444Z,0
2016-07-25T02:48:04.183Z,0
2016-07-25T02:49:03.681Z,0
2016-07-25T02:50:04.540Z,0
2016-07-25T02:51:04.551Z,0
2016-07-25T02:52:03.659Z,0
2016-07-25T02:53:03.748Z,0
2016-07-25T02:54:03.781Z,0
2016-07-25T02:55:04.519Z,0
2016-07-25T02:56:04.573Z,0
2016-07-25T02:57:04.650Z,0
2016-07-25T02:58:04.674Z,0
2016-07-25T02:59:04.737Z,0
2016-07-25T03:00:04.757Z,0
2016-07-25T03:01:04.823Z,0
2016-07-25T03:02:04.872Z,0
2016-07-25T03:03:04.905Z,0
2016-07-25T03:04:04.248Z,0
2016-07-25T03:05:04.990Z,0
2016-07-25T03:06:05.044Z,0
2016-07-25T03:07:05.098Z,0
2016-07-25T03:08:04.487Z,0
2016-07-25T03:09:05.198Z,0
2016-07-25T03:10:05.235Z,0
2016-07-25T03:11:05.281Z,4
2016-07-25T03:12:04.650Z,4
2016-07-25T03:13:05.402Z,4
2016-07-25T03:14:05.446Z,4
2016-07-25T03:15:04.800Z,4
2016-07-25T03:16:05.553Z,4
2016-07-25T03:17:05.618Z,8
2016-07-25T03:18:05.617Z,8
2016-07-25T03:19:05.702Z,8
2016-07-25T03:20:05.063Z,12
2016-07-25T03:21:04.401Z,16
2016-07-25T03:22:05.863Z,12
2016-07-25T03:23:05.895Z,16
2016-07-25T03:24:05.212Z,20
2016-07-25T03:25:05.277Z,20
2016-07-25T03:26:06.057Z,28
2016-07-25T03:27:06.086Z,32
2016-07-25T03:28:06.103Z,36
2016-07-25T03:29:06.184Z,40
2016-07-25T03:30:06.270Z,44
2016-07-25T03:31:06.281Z,56
2016-07-25T03:32:06.339Z,64
2016-07-25T03:33:06.370Z,68
2016-07-25T03:34:06.423Z,76
2016-07-25T03:35:05.786Z,88
2016-07-25T03:36:06.513Z,92
2016-07-25T03:37:06.565Z,100
2016-07-25T03:38:05.937Z,108
2016-07-25T03:39:05.993Z,120
2016-07-25T03:40:06.730Z,132
2016-07-25T03:41:06.758Z,144
2016-07-25T03:42:06.802Z,152
2016-07-25T03:43:06.875Z,156
2016-07-25T03:44:06.904Z,160
2016-07-25T03:45:06.939Z,168
2016-07-25T03:46:07.031Z,180
2016-07-25T03:47:07.058Z,192
2016-07-25T03:48:07.094Z,216
2016-07-25T03:49:07.150Z,244
2016-07-25T03:50:07.203Z,264
2016-07-25T03:51:07.246Z,304
2016-07-25T03:52:07.294Z,332
2016-07-25T03:53:07.363Z,368
2016-07-25T03:54:07.396Z,392
2016-07-25T03:55:07.448Z,404
2016-07-25T03:56:06.805Z,424
2016-07-25T03:57:06.821Z,444
2016-07-25T03:58:07.601Z,488
2016-07-25T03:59:07.640Z,552
2016-07-25T04:00:07.683Z,604
2016-07-25T04:01:07.753Z,644
2016-07-25T04:02:07.075Z,668
2016-07-25T04:03:07.835Z,688
2016-07-25T04:04:07.169Z,684
2016-07-25T04:05:07.932Z,676
2016-07-25T04:06:07.976Z,668
2016-07-25T04:07:07.316Z,668
2016-07-25T04:08:07.580Z,676
2016-07-25T04:09:08.146Z,700
2016-07-25T04:10:07.492Z,716
2016-07-25T04:11:08.198Z,736
2016-07-25T04:12:08.292Z,736
2016-07-25T04:13:08.336Z,788
2016-07-25T04:14:07.660Z,836
2016-07-25T04:15:08.614Z,876
2016-07-25T04:16:07.760Z,880
2016-07-25T04:17:07.110Z,912
2016-07-25T04:18:07.834Z,980
2016-07-25T04:19:08.639Z,1152
2016-07-25T04:20:07.275Z,1368
2016-07-25T04:21:07.981Z,1536
2016-07-25T04:22:08.778Z,1636
2016-07-25T04:23:08.104Z,1708
2016-07-25T04:24:08.153Z,1760
2016-07-25T04:25:08.932Z,1820
2016-07-25T04:26:08.928Z,1844
2016-07-25T04:27:08.288Z,1888
2016-07-25T04:28:09.071Z,1960
2016-07-25T04:29:09.092Z,2064
2016-07-25T04:30:08.459Z,2168
2016-07-25T04:31:09.188Z,2264
2016-07-25T04:32:08.555Z,2348
2016-07-25T04:33:09.277Z,2428
2016-07-25T04:34:09.357Z,2484
2016-07-25T04:35:08.710Z,2548
2016-07-25T04:36:08.739Z,2612
2016-07-25T04:37:09.507Z,2736
2016-07-25T04:38:09.513Z,2912
2016-07-25T04:39:09.566Z,3108
2016-07-25T04:40:09.625Z,3232
2016-07-25T04:41:09.663Z,3408
2016-07-25T04:42:09.770Z,3608
2016-07-25T04:43:12.812Z,3948
2016-07-25T04:44:09.826Z,4140
2016-07-25T04:45:09.853Z,4320
2016-07-25T04:46:09.933Z,4824
2016-07-25T04:47:11.384Z,5152
2016-07-25T04:48:09.994Z,5204
2016-07-25T04:49:10.045Z,5424
2016-07-25T04:50:10.130Z,5632
2016-07-25T04:51:09.480Z,5852
2016-07-25T04:52:09.538Z,5976
2016-07-25T04:53:10.261Z,6412
2016-07-25T04:54:09.596Z,7128
2016-07-25T04:55:09.664Z,7720
2016-07-25T04:56:10.425Z,8224
2016-07-25T04:57:10.453Z,8872
2016-07-25T04:58:10.706Z,9552
2016-07-25T04:59:10.561Z,9876
2016-07-25T05:00:10.580Z,10244
2016-07-25T05:01:10.662Z,10224
2016-07-25T05:02:10.721Z,10348
2016-07-25T05:03:10.035Z,10412
2016-07-25T05:04:10.803Z,10340
2016-07-25T05:05:12.077Z,10288
2016-07-25T05:06:10.195Z,9940
2016-07-25T05:07:10.945Z,9736
2016-07-25T05:08:10.994Z,9716
2016-07-25T05:09:10.361Z,9904
2016-07-25T05:10:11.155Z,10144
2016-07-25T05:11:11.852Z,10088
2016-07-25T05:12:10.515Z,9388
2016-07-25T05:13:11.258Z,9612
2016-07-25T05:14:10.592Z,10016
2016-07-25T05:15:11.349Z,10844
2016-07-25T05:16:11.400Z,10916
2016-07-25T05:17:11.441Z,11632
2016-07-25T05:18:11.502Z,12524
2016-07-25T05:19:10.827Z,13512
2016-07-25T05:20:10.900Z,14516
2016-07-25T05:21:11.640Z,15528
2016-07-25T05:22:11.667Z,16160
2016-07-25T05:23:11.781Z,15760
2016-07-25T05:24:11.104Z,15832
2016-07-25T05:25:11.122Z,15448
2016-07-25T05:26:11.180Z,15732
2016-07-25T05:27:11.917Z,15776
2016-07-25T05:28:13.011Z,15736
2016-07-25T05:29:12.057Z,16536
2016-07-25T05:30:12.087Z,17248
2016-07-25T05:31:11.661Z,18848
2016-07-25T05:32:12.193Z,20928
2016-07-25T05:33:12.229Z,23744
2016-07-25T05:34:15.606Z,26080
2016-07-25T05:35:12.327Z,26720
2016-07-25T05:36:12.353Z,26112
2016-07-25T05:37:12.451Z,25184
2016-07-25T05:38:14.047Z,24384
2016-07-25T05:39:12.524Z,24192
2016-07-25T05:40:12.593Z,23904
2016-07-25T05:41:11.909Z,23584
2016-07-25T05:42:12.689Z,23200
2016-07-25T05:43:12.706Z,22624
2016-07-25T05:44:12.767Z,21728
2016-07-25T05:45:12.817Z,20928
2016-07-25T05:46:14.433Z,20576
2016-07-25T05:47:12.914Z,20384
2016-07-25T05:48:13.150Z,20512
2016-07-25T05:49:16.105Z,21472
2016-07-25T05:50:14.462Z,22464
2016-07-25T05:51:14.004Z,23616
2016-07-25T05:52:13.141Z,24224
2016-07-25T05:53:27.104Z,24416
2016-07-25T05:54:15.268Z,24320
2016-07-25T05:55:14.728Z,24032
2016-07-25T05:56:12.663Z,23360
2016-07-25T05:57:14.071Z,23200
2016-07-25T05:58:12.753Z,23488
2016-07-25T05:59:13.511Z,24640
2016-07-25T06:00:13.560Z,25952
2016-07-25T06:01:13.825Z,26432
2016-07-25T06:02:13.666Z,26144
2016-07-25T06:03:13.726Z,25408
2016-07-25T06:04:13.058Z,24480
2016-07-25T06:05:13.787Z,22112
2016-07-25T06:06:13.840Z,19488
2016-07-25T06:07:13.227Z,20224
2016-07-25T06:08:12.542Z,20192
2016-07-25T06:09:14.032Z,20320
2016-07-25T06:10:12.651Z,20800
2016-07-25T06:11:14.116Z,21120
2016-07-25T06:12:14.138Z,21632
2016-07-25T06:13:14.431Z,21920
2016-07-25T06:14:13.791Z,22176
2016-07-25T06:15:13.593Z,22336
2016-07-25T06:16:13.688Z,22784
2016-07-25T06:17:13.043Z,22816
2016-07-25T06:18:14.456Z,22240
2016-07-25T06:19:14.492Z,21728
2016-07-25T06:20:14.534Z,20896
2016-07-25T06:21:14.614Z,19648
2016-07-25T06:22:13.948Z,18304
2016-07-25T06:23:14.700Z,17068
2016-07-25T06:24:14.035Z,16296
2016-07-25T06:25:14.837Z,15184
2016-07-25T06:26:14.866Z,14212
2016-07-25T06:27:14.940Z,13488
2016-07-25T06:28:14.259Z,13056
2016-07-25T06:29:15.028Z,12656
2016-07-25T06:30:15.093Z,12228
2016-07-25T06:31:14.615Z,11856
2016-07-25T06:32:14.487Z,11600
2016-07-25T06:33:14.538Z,11132
2016-07-25T06:34:17.867Z,10648
2016-07-25T06:35:16.303Z,10424
2016-07-25T06:36:14.652Z,10216
2016-07-25T06:37:16.989Z,10052
2016-07-25T06:38:15.453Z,9952
2016-07-25T06:39:15.730Z,9972
2016-07-25T06:40:14.885Z,10024
2016-07-25T06:41:17.326Z,10036
2016-07-25T06:42:15.653Z,9932
2016-07-25T06:43:15.697Z,9780
2016-07-25T06:44:16.076Z,9620
2016-07-25T06:45:18.639Z,9472
2016-07-25T06:47:15.952Z,9812
2016-07-25T06:48:16.002Z,10096
2016-07-25T06:49:29.557Z,10592
2016-07-25T06:50:15.623Z,11028
2016-07-25T06:51:17.947Z,11780
2016-07-25T06:52:19.411Z,12608
2016-07-25T06:53:30.455Z,13776
2016-07-25T06:54:16.308Z,14512
2016-07-25T06:55:17.871Z,15376
2016-07-25T06:56:14.986Z,16080
2016-07-25T06:57:16.452Z,16800
2016-07-25T06:58:16.493Z,17512
2016-07-25T06:59:16.438Z,18496
2016-07-25T07:00:16.611Z,19296
2016-07-25T07:01:16.652Z,20032
2016-07-25T07:02:16.615Z,20736
2016-07-25T07:03:17.934Z,21504
2016-07-25T07:05:16.847Z,23168
2016-07-25T07:06:16.422Z,23808
2016-07-25T07:07:16.251Z,24000
2016-07-25T07:08:16.326Z,24032
2016-07-25T07:09:17.050Z,24864
2016-07-25T07:10:18.521Z,26272
2016-07-25T07:11:17.165Z,27968
2016-07-25T07:12:16.532Z,29920
2016-07-25T07:13:17.270Z,31136
2016-07-25T07:14:17.317Z,31936
2016-07-25T07:15:17.359Z,32832
2016-07-25T07:16:16.698Z,34624
2016-07-25T07:17:17.445Z,36800
2016-07-25T07:18:17.526Z,37472
2016-07-25T07:19:17.556Z,34176
2016-07-25T07:20:17.605Z,26592
2016-07-25T07:21:17.684Z,22144
2016-07-25T07:22:17.757Z,22848
2016-07-25T07:23:17.788Z,23456
2016-07-25T07:24:17.830Z,24288
2016-07-25T07:25:17.183Z,24832
2016-07-25T07:26:17.945Z,25632
2016-07-25T07:27:17.319Z,26176
2016-07-25T07:28:18.024Z,24992
2016-07-25T07:29:19.073Z,25984
2016-07-25T07:30:17.832Z,25824
2016-07-25T07:31:20.799Z,27424
2016-07-25T07:32:19.252Z,29312
2016-07-25T07:33:17.591Z,31488
2016-07-25T07:34:18.362Z,32384
2016-07-25T07:35:33.054Z,32992
2016-07-25T07:36:17.739Z,31712
2016-07-25T07:37:18.541Z,31840
2016-07-25T07:38:31.739Z,30304
2016-07-25T07:39:17.921Z,28832
2016-07-25T07:40:18.666Z,30112
2016-07-25T07:41:18.037Z,30528
2016-07-25T07:42:21.397Z,30016
2016-07-25T07:43:18.126Z,29184
2016-07-25T07:44:18.896Z,29056
2016-07-25T07:45:18.426Z,29632
2016-07-25T07:46:17.580Z,30304
2016-07-25T07:47:20.009Z,32608
2016-07-25T07:48:19.296Z,36896
2016-07-25T07:49:33.328Z,43776
2016-07-25T07:50:18.473Z,42976
2016-07-25T07:51:19.207Z,41856
2016-07-25T07:52:19.270Z,41952
2016-07-25T07:53:20.744Z,44160
2016-07-25T07:54:19.992Z,48352
2016-07-25T07:55:19.437Z,49888
2016-07-25T07:56:20.416Z,49856
2016-07-25T07:57:19.764Z,46752
2016-07-25T07:58:18.891Z,43136
2016-07-25T07:59:33.536Z,43296
2016-07-25T08:00:19.717Z,45632
2016-07-25T08:01:22.715Z,48544
2016-07-25T08:02:21.667Z,47488
2016-07-25T08:04:40.619Z,42528
2016-07-25T08:05:20.995Z,42816
2016-07-25T08:06:34.699Z,41920
2016-07-25T08:07:25.022Z,40352
2016-07-25T08:08:22.163Z,38848
2016-07-25T08:09:21.461Z,38304
2016-07-25T08:11:35.935Z,36768
2016-07-25T08:12:25.100Z,35872
2016-07-25T08:13:25.653Z,37248
2016-07-25T08:14:36.824Z,39488
2016-07-25T08:15:30.894Z,40384
2016-07-25T08:17:23.027Z,36480
2016-07-25T08:18:20.661Z,35872
2016-07-25T08:19:19.887Z,37696
2016-07-25T08:20:20.715Z,37504
2016-07-25T08:21:19.624Z,40160
2016-07-25T08:22:20.830Z,43040
2016-07-25T08:23:20.196Z,43968
2016-07-25T08:24:20.237Z,45696
2016-07-25T08:25:21.001Z,46624
2016-07-25T08:26:20.353Z,45504
2016-07-25T08:27:20.409Z,41760
2016-07-25T08:28:21.183Z,37664
2016-07-25T08:29:21.206Z,34848
2016-07-25T08:30:21.249Z,33440
2016-07-25T08:31:20.620Z,32448
2016-07-25T08:32:21.398Z,30368
2016-07-25T08:33:21.423Z,29536
2016-07-25T08:34:20.793Z,30144
2016-07-25T08:35:34.470Z,32064
2016-07-25T08:36:21.587Z,33440
2016-07-25T08:37:21.655Z,35200
2016-07-25T08:38:21.709Z,40512
2016-07-25T08:39:22.451Z,43424
2016-07-25T08:40:21.094Z,46016
2016-07-25T08:41:21.169Z,48352
2016-07-25T08:42:22.622Z,53888
2016-07-25T08:43:21.948Z,55136
2016-07-25T08:44:36.416Z,43776
2016-07-25T08:45:22.046Z,37664
2016-07-25T08:46:23.626Z,34272
2016-07-25T08:47:22.138Z,31104
2016-07-25T08:48:21.540Z,30432
2016-07-25T08:49:36.492Z,29888
2016-07-25T08:50:23.755Z,30080
2016-07-25T08:51:21.668Z,30176
2016-07-25T08:52:21.738Z,32512
2016-07-25T08:53:21.782Z,34464
2016-07-25T08:54:21.830Z,30880
2016-07-25T08:55:22.568Z,29312
2016-07-25T08:56:21.929Z,27232
2016-07-25T08:57:21.982Z,28800
2016-07-25T08:58:22.040Z,31424
2016-07-25T08:59:22.812Z,30080
2016-07-25T09:00:22.869Z,30848
2016-07-25T09:01:22.902Z,33376
2016-07-25T09:02:22.267Z,38144
2016-07-25T09:03:22.291Z,41056
2016-07-25T09:04:22.348Z,49504
2016-07-25T09:05:22.390Z,51392
2016-07-25T09:06:23.188Z,44544
2016-07-25T09:07:23.236Z,46752
2016-07-25T09:08:23.274Z,41312
2016-07-25T09:09:22.634Z,37856
2016-07-25T09:10:23.397Z,33760
2016-07-25T09:11:22.734Z,35680
2016-07-25T09:12:23.464Z,36480
2016-07-25T09:13:22.822Z,39104
2016-07-25T09:14:23.582Z,36800
2016-07-25T09:15:23.637Z,30336
2016-07-25T09:16:23.700Z,25600
2016-07-25T09:17:23.038Z,24352
2016-07-25T09:18:23.788Z,24128
2016-07-25T09:19:23.817Z,24032
2016-07-25T09:20:23.916Z,24704
2016-07-25T09:21:23.244Z,26144
2016-07-25T09:22:23.299Z,28224
2016-07-25T09:23:24.073Z,29216
2016-07-25T09:24:24.098Z,30656
2016-07-25T09:25:23.476Z,34304
2016-07-25T09:26:24.225Z,38272
2016-07-25T09:27:24.281Z,41440
2016-07-25T09:28:24.335Z,45824
2016-07-25T09:29:24.338Z,49472
2016-07-25T09:30:23.723Z,54208
2016-07-25T09:31:24.466Z,60160
2016-07-25T09:32:24.534Z,63008
2016-07-25T09:33:23.870Z,63328
2016-07-25T09:34:24.639Z,70464
2016-07-25T09:35:24.699Z,105088
2016-07-25T09:36:24.741Z,97440
2016-07-25T09:37:24.758Z,87840
2016-07-25T09:38:24.120Z,70432
2016-07-25T09:39:24.167Z,59680
2016-07-25T09:40:24.254Z,43200
2016-07-25T09:41:24.969Z,36864
2016-07-25T09:42:24.356Z,38336
2016-07-25T09:43:24.386Z,35712
2016-07-25T09:44:24.699Z,35616
2016-07-25T09:45:25.189Z,35808
2016-07-25T09:46:25.253Z,36384
2016-07-25T09:47:24.614Z,38368
2016-07-25T09:48:24.681Z,40096
2016-07-25T09:49:25.454Z,40448
2016-07-25T09:50:25.472Z,40032
2016-07-25T09:51:25.504Z,40768
2016-07-25T09:52:25.566Z,42656
2016-07-25T09:53:24.932Z,45248
2016-07-25T09:54:25.686Z,48192
2016-07-25T09:55:25.740Z,51808
2016-07-25T09:56:25.771Z,54720
2016-07-25T09:57:25.118Z,55712
2016-07-25T09:58:25.189Z,54720
2016-07-25T09:59:25.921Z,49792
2016-07-25T10:00:26.026Z,46336
2016-07-25T10:01:25.350Z,41152
2016-07-25T10:02:26.137Z,38016
2016-07-25T10:03:26.156Z,33120
2016-07-25T10:04:26.235Z,31520
2016-07-25T10:05:26.265Z,30176
2016-07-25T10:06:26.516Z,28000
2016-07-25T10:07:26.597Z,30080
2016-07-25T10:08:26.626Z,27200
2016-07-25T10:09:26.490Z,27296
2016-07-25T10:10:25.821Z,24800
2016-07-25T10:11:25.206Z,25728
2016-07-25T10:12:25.940Z,34400
2016-07-25T10:13:26.672Z,37216
2016-07-25T10:14:26.036Z,42464
2016-07-25T10:15:26.821Z,47424
2016-07-25T10:16:26.823Z,56320
2016-07-25T10:17:26.919Z,73056
2016-07-25T10:18:26.238Z,155872
2016-07-25T10:19:26.283Z,108160
2016-07-25T10:20:26.337Z,86848
2016-07-25T10:21:27.089Z,75200
2016-07-25T10:22:27.170Z,64352
2016-07-25T10:23:27.193Z,55936
2016-07-25T10:24:27.493Z,47712
2016-07-25T10:25:26.639Z,37280
2016-07-25T10:26:26.694Z,32896
2016-07-25T10:27:27.410Z,27872
2016-07-25T10:28:27.476Z,24320
2016-07-25T10:29:26.829Z,21792
2016-07-25T10:30:27.579Z,19968
2016-07-25T10:31:26.939Z,18112
2016-07-25T10:32:27.684Z,17632
2016-07-25T10:33:27.044Z,17300
2016-07-25T10:34:27.792Z,15304
2016-07-25T10:35:27.852Z,15260
2016-07-25T10:36:27.941Z,16876
2016-07-25T10:37:27.252Z,18176
2016-07-25T10:38:28.002Z,20160
2016-07-25T10:39:28.055Z,21440
2016-07-25T10:40:28.124Z,23712
2016-07-25T10:41:26.763Z,27232
2016-07-25T10:42:27.520Z,31232
2016-07-25T10:43:28.258Z,35200
2016-07-25T10:44:28.319Z,38368
2016-07-25T10:45:27.677Z,40320
2016-07-25T10:46:27.701Z,41728
2016-07-25T10:47:27.765Z,42336
2016-07-25T10:48:28.733Z,42528
2016-07-25T10:49:28.654Z,42880
2016-07-25T10:50:28.635Z,42560
2016-07-25T10:51:27.966Z,42144
2016-07-25T10:52:28.735Z,42144
2016-07-25T10:53:28.800Z,42592
2016-07-25T10:54:28.182Z,43296
2016-07-25T10:55:28.169Z,44416
2016-07-25T10:56:28.226Z,45280
2016-07-25T10:57:29.003Z,46176
2016-07-25T10:58:29.049Z,47200
2016-07-25T10:59:29.109Z,48384
2016-07-25T11:00:29.161Z,49568
2016-07-25T11:01:29.231Z,50432
2016-07-25T11:02:29.283Z,51744
2016-07-25T11:03:29.323Z,53376
2016-07-25T11:04:28.677Z,54496
2016-07-25T11:05:29.443Z,55904
2016-07-25T11:06:28.750Z,57408
2016-07-25T11:07:28.832Z,59040
2016-07-25T11:08:29.552Z,60576
2016-07-25T11:09:29.631Z,61920
2016-07-25T11:10:29.000Z,64192
2016-07-25T11:11:29.737Z,68032
2016-07-25T11:12:29.111Z,69504
2016-07-25T11:13:29.851Z,74176
2016-07-25T11:14:29.942Z,71712
2016-07-25T11:15:29.958Z,70368
2016-07-25T11:16:30.035Z,72000
2016-07-25T11:17:30.057Z,76192
2016-07-25T11:18:29.391Z,72960
2016-07-25T11:19:30.168Z,72992
2016-07-25T11:20:30.234Z,73760
2016-07-25T11:21:29.586Z,76608
2016-07-25T11:22:30.323Z,77600
2016-07-25T11:23:30.371Z,75904
2016-07-25T11:24:29.730Z,79648
2016-07-25T11:25:29.769Z,64416
2016-07-25T11:26:30.518Z,72288
2016-07-25T11:27:30.590Z,74496
2016-07-25T11:28:30.635Z,76736
2016-07-25T11:29:30.733Z,76160
2016-07-25T11:30:30.770Z,80160
2016-07-25T11:31:30.832Z,79296
2016-07-25T11:32:30.157Z,79904
2016-07-25T11:33:30.911Z,81184
2016-07-25T11:34:30.951Z,82272
2016-07-25T11:35:31.017Z,84448
2016-07-25T11:36:31.058Z,79616
2016-07-25T11:37:31.147Z,76640
2016-07-25T11:38:31.190Z,74176
2016-07-25T11:39:31.255Z,71712
2016-07-25T11:40:31.470Z,69152
2016-07-25T11:41:30.657Z,67488
2016-07-25T11:42:31.409Z,66304
2016-07-25T11:43:30.759Z,65888
2016-07-25T11:44:31.505Z,65600
2016-07-25T11:45:31.549Z,64864
2016-07-25T11:46:31.618Z,62560
2016-07-25T11:47:31.647Z,61408
2016-07-25T11:48:31.739Z,61440
2016-07-25T11:49:31.119Z,60800
2016-07-25T11:50:31.119Z,60480
2016-07-25T11:51:31.220Z,59904
2016-07-25T11:52:31.259Z,59680
2016-07-25T11:53:31.994Z,57984
2016-07-25T11:54:32.056Z,55968
2016-07-25T11:55:32.113Z,45856
2016-07-25T11:56:32.141Z,39968
2016-07-25T11:57:30.816Z,40608
2016-07-25T11:58:31.565Z,37376
2016-07-25T11:59:32.306Z,37568
2016-07-25T12:00:32.351Z,40000
2016-07-25T12:01:32.401Z,47264
2016-07-25T12:02:32.478Z,51200
2016-07-25T12:03:32.551Z,59872
2016-07-25T12:04:31.865Z,61440
2016-07-25T12:05:32.641Z,61920
2016-07-25T12:06:32.680Z,61952
2016-07-25T12:07:32.767Z,61664
2016-07-25T12:08:32.816Z,61632
2016-07-25T12:09:32.863Z,61696
2016-07-25T12:10:32.188Z,57472
2016-07-25T12:11:32.969Z,58272
2016-07-25T12:12:32.997Z,59616
2016-07-25T12:13:32.369Z,62400
2016-07-25T12:14:33.113Z,69408
2016-07-25T12:15:32.504Z,73504
2016-07-25T12:16:32.511Z,71392
2016-07-25T12:17:33.277Z,71136
2016-07-25T12:18:31.915Z,70656
2016-07-25T12:19:31.987Z,72320
2016-07-25T12:20:32.749Z,77664
2016-07-25T12:21:33.493Z,73472
2016-07-25T12:22:33.524Z,73152
2016-07-25T12:23:33.612Z,74176
2016-07-25T12:24:33.711Z,73056
2016-07-25T12:25:33.696Z,73248
2016-07-25T12:26:33.758Z,78368
2016-07-25T12:27:33.805Z,77632
2016-07-25T12:28:33.839Z,83008
2016-07-25T12:29:33.909Z,84960
2016-07-25T12:30:33.967Z,55488
2016-07-25T12:31:33.315Z,50208
2016-07-25T12:32:34.069Z,54304
2016-07-25T12:33:34.159Z,73600
2016-07-25T12:34:34.160Z,77920
2016-07-25T12:35:34.206Z,73856
2016-07-25T12:36:33.577Z,74464
2016-07-25T12:37:34.348Z,75520
2016-07-25T12:38:33.680Z,76896
2016-07-25T12:39:34.431Z,70944
2016-07-25T12:40:34.487Z,70624
2016-07-25T12:41:34.554Z,74784
2016-07-25T12:42:34.592Z,75776
2016-07-25T12:43:34.672Z,75040
2016-07-25T12:44:34.706Z,77280
2016-07-25T12:45:34.750Z,81408
2016-07-25T12:46:34.810Z,77248
2016-07-25T12:47:34.175Z,71808
2016-07-25T12:48:34.902Z,62144
2016-07-25T12:49:35.164Z,75008
2016-07-25T12:50:34.321Z,82496
2016-07-25T12:51:34.368Z,64000
2016-07-25T12:52:34.425Z,89568
2016-07-25T12:53:35.168Z,53472
2016-07-25T12:54:35.226Z,54144
2016-07-25T12:55:35.279Z,57088
2016-07-25T12:56:34.616Z,84352
2016-07-25T12:57:35.384Z,69056
2016-07-25T12:58:34.740Z,53248
2016-07-25T12:59:37.248Z,56896
2016-07-25T13:00:35.979Z,65440
2016-07-25T13:02:36.091Z,97344
2016-07-25T13:03:35.002Z,99680
2016-07-25T13:04:35.759Z,89248
2016-07-25T13:05:35.088Z,75616
2016-07-25T13:06:35.828Z,55136
2016-07-25T13:07:35.897Z,47520
2016-07-25T13:08:34.552Z,62880
2016-07-25T13:09:36.006Z,65824
2016-07-25T13:10:35.342Z,66720
2016-07-25T13:11:35.392Z,66816
2016-07-25T13:12:36.173Z,76864
2016-07-25T13:13:36.231Z,92512
2016-07-25T13:14:36.282Z,113600
2016-07-25T13:15:36.337Z,118336
2016-07-25T13:16:35.665Z,128736
2016-07-25T13:17:36.438Z,128128
2016-07-25T13:18:36.472Z,109824
2016-07-25T13:19:35.824Z,90656
2016-07-25T13:20:36.557Z,82304
2016-07-25T13:21:36.605Z,74368
2016-07-25T13:22:36.656Z,69344
2016-07-25T13:23:36.865Z,64832
2016-07-25T13:24:35.404Z,66976
2016-07-25T13:25:36.868Z,60736
2016-07-25T13:26:35.472Z,55392
2016-07-25T13:28:37.005Z,66976
2016-07-25T13:29:37.027Z,55008
2016-07-25T13:30:37.133Z,52416
2016-07-25T13:31:36.454Z,54144
2016-07-25T13:32:37.192Z,81952